createdAt,value
2022-09-10T00:02:05.663Z,0.22
2022-09-10T00:04:53.161Z,0.25
2022-09-10T00:07:42.760Z,0.20
2022-09-10T00:10:29.385Z,0.17
2022-09-10T00:13:16.791Z,0.20
2022-09-10T00:16:10.529Z,0.20
2022-09-10T00:18:58.288Z,0.10
2022-09-10T00:21:45.417Z,0.20
2022-09-10T00:24:34.414Z,0.20
2022-09-10T00:27:21.482Z,0.50
2022-09-10T00:30:11.390Z,0.20
2022-09-10T00:32:58.452Z,0.20
2022-09-10T00:35:45.821Z,0.20
2022-09-10T00:38:32.713Z,0.20
2022-09-10T00:41:22.350Z,0.30
2022-09-10T00:44:35.099Z,0.30
2022-09-10T00:47:24.916Z,0.20
2022-09-10T00:50:18.129Z,0.25
2022-09-10T00:53:07.033Z,0.35
2022-09-10T00:55:55.743Z,0.20
2022-09-10T00:58:45.724Z,0.40
2022-09-10T01:01:33.663Z,0.30
2022-09-10T01:04:20.679Z,0.20
2022-09-10T01:07:08.064Z,0.22
2022-09-10T01:09:56.203Z,0.20
2022-09-10T01:13:00.770Z,0.20
2022-09-10T01:15:57.178Z,0.20
2022-09-10T01:18:51.347Z,0.20
2022-09-10T01:21:46.807Z,0.20
2022-09-10T01:24:48.935Z,0.30
2022-09-10T01:27:48.079Z,0.20
2022-09-10T01:30:38.235Z,0.22
2022-09-10T01:33:28.183Z,0.20
2022-09-10T01:36:19.007Z,0.20
2022-09-10T01:39:11.915Z,0.20
2022-09-10T01:42:00.374Z,0.30
2022-09-10T01:44:53.351Z,0.30
2022-09-10T01:48:22.277Z,0.20
2022-09-10T01:51:17.863Z,0.20
2022-09-10T01:54:11.998Z,0.30
2022-09-10T01:57:04.619Z,0.30
2022-09-10T01:59:56.139Z,0.30
2022-09-10T02:02:45.304Z,0.28
2022-09-10T02:05:35.180Z,0.40
2022-09-10T02:08:27.737Z,0.38
2022-09-10T02:11:15.425Z,0.20
2022-09-10T02:14:07.423Z,0.28
2022-09-10T02:17:13.652Z,0.15
2022-09-10T02:20:02.208Z,0.30
2022-09-10T02:22:51.985Z,0.20
2022-09-10T02:25:40.646Z,0.23
2022-09-10T02:28:28.064Z,0.22
2022-09-10T02:31:15.040Z,0.45
2022-09-10T02:34:03.298Z,0.20
2022-09-10T02:36:50.558Z,0.30
2022-09-10T02:39:37.779Z,0.30
2022-09-10T02:42:27.067Z,0.50
2022-09-10T02:45:14.298Z,0.40
2022-09-10T02:48:01.579Z,0.38
2022-09-10T02:50:50.403Z,0.47
2022-09-10T02:53:39.357Z,0.20
2022-09-10T02:56:28.190Z,0.43
2022-09-10T02:59:16.622Z,0.30
2022-09-10T03:02:03.857Z,0.30
2022-09-10T03:04:51.410Z,0.37
2022-09-10T03:07:38.677Z,0.40
2022-09-10T03:10:25.749Z,0.45
2022-09-10T03:13:12.668Z,0.30
2022-09-10T03:16:01.957Z,0.50
2022-09-10T03:18:49.343Z,0.45
2022-09-10T03:21:36.520Z,0.30
2022-09-10T03:24:25.234Z,0.20
2022-09-10T03:27:13.994Z,0.20
2022-09-10T03:30:01.525Z,0.40
2022-09-10T03:32:53.127Z,0.50
2022-09-10T03:35:40.679Z,0.30
2022-09-10T03:38:33.840Z,0.25
2022-09-10T03:41:20.973Z,0.22
2022-09-10T03:44:10.810Z,0.40
2022-09-10T03:46:58.924Z,0.40
2022-09-10T03:49:50.821Z,0.30
2022-09-10T03:52:38.329Z,0.52
2022-09-10T03:55:25.681Z,0.50
2022-09-10T03:58:12.856Z,0.50
2022-09-10T04:01:00.094Z,0.50
2022-09-10T04:03:47.610Z,0.40
2022-09-10T04:06:37.594Z,0.40
2022-09-10T04:09:24.976Z,0.33
2022-09-10T04:12:12.110Z,0.28
2022-09-10T04:15:01.837Z,0.30
2022-09-10T04:17:51.279Z,0.40
2022-09-10T04:20:40.583Z,0.40
2022-09-10T04:23:32.828Z,0.37
2022-09-10T04:26:22.347Z,0.40
2022-09-10T04:29:10.464Z,0.68
2022-09-10T04:31:58.706Z,0.40
2022-09-10T04:34:49.388Z,0.50
2022-09-10T04:37:37.732Z,0.38
2022-09-10T04:40:27.250Z,0.45
2022-09-10T04:43:15.420Z,1.02
2022-09-10T04:46:03.085Z,0.60
2022-09-10T04:48:51.955Z,0.50
2022-09-10T04:51:42.471Z,0.90
2022-09-10T04:54:29.587Z,0.50
2022-09-10T04:57:18.766Z,0.50
2022-09-10T05:00:08.735Z,0.70
2022-09-10T05:02:58.431Z,0.80
2022-09-10T05:05:46.019Z,0.60
2022-09-10T05:08:33.156Z,0.50
2022-09-10T05:11:21.527Z,0.77
2022-09-10T05:14:09.558Z,0.70
2022-09-10T05:16:56.526Z,1.00
2022-09-10T05:19:44.000Z,0.70
2022-09-10T05:22:37.197Z,0.70
2022-09-10T05:25:27.863Z,0.68
2022-09-10T05:28:16.071Z,0.70
2022-09-10T05:31:05.993Z,0.82
2022-09-10T05:33:55.138Z,0.93
2022-09-10T05:36:44.135Z,0.70
2022-09-10T05:39:31.663Z,0.98
2022-09-10T05:42:18.966Z,0.52
2022-09-10T05:45:06.838Z,1.00
2022-09-10T05:47:56.256Z,1.00
2022-09-10T05:50:45.501Z,0.98
2022-09-10T05:53:33.365Z,1.25
2022-09-10T05:56:21.215Z,0.93
2022-09-10T05:59:08.233Z,1.08
2022-09-10T06:01:58.178Z,0.80
2022-09-10T06:04:47.325Z,0.52
2022-09-10T06:07:36.060Z,0.70
2022-09-10T06:10:23.344Z,1.33
2022-09-10T06:13:12.333Z,0.70
2022-09-10T06:16:00.448Z,0.68
2022-09-10T06:18:48.367Z,0.50
2022-09-10T06:21:39.410Z,0.60
2022-09-10T06:24:26.651Z,0.55
2022-09-10T06:27:16.216Z,0.68
2022-09-10T06:30:03.923Z,0.95
2022-09-10T06:32:51.073Z,0.40
2022-09-10T06:35:38.639Z,0.70
2022-09-10T06:38:29.477Z,0.63
2022-09-10T06:41:17.256Z,0.70
2022-09-10T06:44:11.276Z,0.70
2022-09-10T06:47:42.715Z,0.80
2022-09-10T06:50:10.224Z,1.05
2022-09-10T06:52:59.551Z,1.13
2022-09-10T06:55:48.654Z,0.85
2022-09-10T06:58:36.184Z,0.93
2022-09-10T07:01:25.019Z,1.15
2022-09-10T07:04:17.747Z,1.70
2022-09-10T07:07:05.028Z,0.60
2022-09-10T07:09:55.264Z,1.10
2022-09-10T07:12:44.788Z,1.13
2022-09-10T07:15:33.058Z,0.60
2022-09-10T07:18:20.480Z,0.80
2022-09-10T07:21:11.511Z,0.77
2022-09-10T07:24:03.104Z,0.95
2022-09-10T07:26:51.449Z,0.90
2022-09-10T07:29:39.656Z,0.85
2022-09-10T07:32:35.221Z,0.85
2022-09-10T07:35:31.055Z,1.58
2022-09-10T07:38:19.673Z,1.20
2022-09-10T07:41:08.919Z,0.90
2022-09-10T07:43:56.486Z,1.02
2022-09-10T07:46:49.757Z,1.20
2022-09-10T07:49:38.569Z,0.82
2022-09-10T07:52:27.013Z,1.40
2022-09-10T07:55:15.508Z,1.13
2022-09-10T07:58:03.119Z,1.80
2022-09-10T08:00:51.137Z,1.05
2022-09-10T08:03:40.034Z,0.80
2022-09-10T08:06:34.846Z,1.15
2022-09-10T08:09:24.269Z,0.98
2022-09-10T08:12:14.514Z,0.90
2022-09-10T08:15:04.389Z,1.40
2022-09-10T08:17:52.399Z,0.90
2022-09-10T08:20:45.576Z,0.80
2022-09-10T08:23:43.843Z,1.20
2022-09-10T08:26:33.574Z,0.80
2022-09-10T08:29:22.360Z,0.70
2022-09-10T08:32:13.026Z,1.10
2022-09-10T08:35:05.876Z,0.70
2022-09-10T08:37:55.316Z,1.23
2022-09-10T08:40:43.464Z,0.80
2022-09-10T08:43:35.673Z,0.75
2022-09-10T08:46:24.249Z,0.98
2022-09-10T08:49:14.537Z,1.20
2022-09-10T08:52:03.634Z,1.02
2022-09-10T08:54:56.585Z,0.80
2022-09-10T08:57:47.049Z,0.93
2022-09-10T09:00:37.238Z,0.80
2022-09-10T09:03:35.746Z,1.17
2022-09-10T09:06:27.872Z,1.00
2022-09-10T09:09:15.948Z,0.87
2022-09-10T09:12:10.562Z,0.70
2022-09-10T09:15:08.682Z,0.90
2022-09-10T09:18:02.404Z,0.65
2022-09-10T09:20:51.632Z,0.80
2022-09-10T09:24:02.750Z,0.55
2022-09-10T09:26:55.620Z,0.70
2022-09-10T09:29:51.809Z,0.80
2022-09-10T09:32:42.434Z,0.80
2022-09-10T09:35:32.283Z,0.80
2022-09-10T09:38:23.747Z,0.70
2022-09-10T09:41:17.967Z,0.47
2022-09-10T09:44:08.591Z,0.57
2022-09-10T09:46:58.479Z,1.05
2022-09-10T09:49:46.169Z,0.43
2022-09-10T09:52:33.907Z,0.22
2022-09-10T09:55:26.168Z,0.32
2022-09-10T09:58:29.481Z,0.20
2022-09-10T10:01:18.673Z,0.43
2022-09-10T10:04:17.392Z,0.17
2022-09-10T10:07:04.639Z,1.02
2022-09-10T10:09:52.152Z,0.40
2022-09-10T10:12:43.664Z,0.40
2022-09-10T10:15:38.853Z,0.40
2022-09-10T10:18:31.718Z,0.65
2022-09-10T10:21:22.237Z,0.57
2022-09-10T10:24:28.112Z,0.50
2022-09-10T10:27:17.827Z,0.38
2022-09-10T10:30:07.387Z,0.70
2022-09-10T10:32:57.169Z,0.75
2022-09-10T10:35:48.525Z,0.60
2022-09-10T10:38:40.269Z,0.47
2022-09-10T10:41:33.763Z,0.50
2022-09-10T10:44:36.096Z,0.60
2022-09-10T10:47:33.912Z,0.50
2022-09-10T10:50:26.587Z,0.67
2022-09-10T10:53:26.822Z,0.43
2022-09-10T10:56:19.143Z,0.40
2022-09-10T10:59:23.449Z,0.50
2022-09-10T11:02:15.712Z,0.73
2022-09-10T11:05:03.815Z,0.75
2022-09-10T11:07:51.169Z,1.30
2022-09-10T11:10:39.811Z,0.50
2022-09-10T11:13:32.238Z,0.40
2022-09-10T11:16:21.831Z,0.70
2022-09-10T11:19:12.659Z,0.60
2022-09-10T11:22:03.011Z,0.40
2022-09-10T11:24:52.109Z,0.80
2022-09-10T11:27:41.878Z,0.50
2022-09-10T11:30:30.731Z,0.50
2022-09-10T11:33:23.297Z,0.60
2022-09-10T11:36:12.856Z,0.50
2022-09-10T11:39:03.280Z,0.70
2022-09-10T11:41:52.496Z,0.43
2022-09-10T11:44:44.506Z,0.40
2022-09-10T11:47:34.673Z,0.55
2022-09-10T11:50:25.504Z,0.40
2022-09-10T11:53:15.637Z,0.30
2022-09-10T11:56:18.012Z,0.30
2022-09-10T11:59:13.370Z,0.55
2022-09-10T12:02:15.516Z,0.63
2022-09-10T12:05:10.828Z,0.80
2022-09-10T12:08:04.336Z,0.70
2022-09-10T12:10:56.353Z,0.70
2022-09-10T12:13:45.650Z,0.60
2022-09-10T12:16:35.911Z,0.55
2022-09-10T12:19:27.086Z,0.73
2022-09-10T12:22:21.691Z,0.63
2022-09-10T12:25:10.913Z,0.50
2022-09-10T12:27:59.306Z,1.52
2022-09-10T12:30:55.265Z,0.75
2022-09-10T12:34:09.250Z,0.45
2022-09-10T12:37:18.269Z,0.50
2022-09-10T12:40:24.218Z,0.40
2022-09-10T12:43:28.761Z,0.50
2022-09-10T12:46:25.932Z,0.47
2022-09-10T12:49:14.916Z,0.82
2022-09-10T12:52:02.225Z,0.60
2022-09-10T12:54:55.672Z,0.40
2022-09-10T12:57:47.261Z,0.60
2022-09-10T13:00:42.058Z,0.70
2022-09-10T13:03:30.945Z,0.32
2022-09-10T13:06:18.599Z,0.30
2022-09-10T13:09:17.748Z,0.60
2022-09-10T13:12:11.336Z,0.40
2022-09-10T13:15:01.912Z,0.60
2022-09-10T13:18:22.193Z,0.45
2022-09-10T13:21:27.495Z,0.50
2022-09-10T13:24:32.346Z,0.50
2022-09-10T13:27:24.008Z,0.70
2022-09-10T13:30:21.300Z,1.00
2022-09-10T13:33:09.647Z,0.37
2022-09-10T13:36:04.343Z,0.47
2022-09-10T13:39:03.177Z,0.55
2022-09-10T13:41:56.892Z,0.40
2022-09-10T13:45:02.048Z,0.50
2022-09-10T13:47:50.435Z,0.80
2022-09-10T13:50:42.308Z,0.47
2022-09-10T13:53:31.273Z,0.60
2022-09-10T13:56:21.380Z,0.50
2022-09-10T13:59:09.509Z,0.70
2022-09-10T14:01:58.308Z,0.83
2022-09-10T14:04:45.333Z,0.55
2022-09-10T14:07:32.951Z,0.82
2022-09-10T14:10:39.584Z,0.80
2022-09-10T14:14:32.998Z,0.70
2022-09-10T14:17:27.264Z,0.70
2022-09-10T14:20:19.708Z,0.87
2022-09-10T14:23:07.626Z,1.17
2022-09-10T14:26:09.993Z,0.65
2022-09-10T14:28:58.936Z,0.70
2022-09-10T14:31:46.511Z,0.60
2022-09-10T14:34:36.807Z,0.47
2022-09-10T14:37:32.223Z,0.65
2022-09-10T14:40:20.877Z,0.60
2022-09-10T14:43:18.715Z,0.80
2022-09-10T14:46:07.813Z,0.55
2022-09-10T14:49:05.389Z,0.47
2022-09-10T14:51:54.978Z,0.88
2022-09-10T14:54:42.546Z,1.38
2022-09-10T14:57:29.793Z,0.50
2022-09-10T15:00:20.193Z,0.70
2022-09-10T15:03:07.261Z,0.77
2022-09-10T15:05:54.743Z,0.35
2022-09-10T15:08:43.280Z,0.50
2022-09-10T15:11:30.362Z,0.60
2022-09-10T15:14:20.993Z,0.70
2022-09-10T15:17:08.481Z,0.50
2022-09-10T15:19:55.974Z,0.43
2022-09-10T15:22:46.292Z,0.60
2022-09-10T15:25:38.602Z,0.50
2022-09-10T15:28:26.118Z,0.57
2022-09-10T15:31:12.937Z,0.50
2022-09-10T15:33:59.922Z,0.32
2022-09-10T15:36:48.732Z,0.50
2022-09-10T15:39:38.021Z,0.60
2022-09-10T15:42:26.537Z,0.50
2022-09-10T15:45:13.340Z,0.68
2022-09-10T15:48:00.644Z,0.50
2022-09-10T15:50:48.993Z,0.57
2022-09-10T15:53:35.997Z,0.37
2022-09-10T15:56:27.018Z,0.50
2022-09-10T15:59:16.478Z,0.50
2022-09-10T16:02:06.521Z,0.50
2022-09-10T16:04:54.184Z,0.60
2022-09-10T16:07:45.047Z,0.57
2022-09-10T16:10:33.284Z,0.70
2022-09-10T16:13:20.919Z,0.85
2022-09-10T16:16:11.891Z,0.90
2022-09-10T16:19:00.400Z,1.40
2022-09-10T16:21:48.320Z,1.48
2022-09-10T16:24:35.524Z,1.35
2022-09-10T16:27:22.657Z,1.50
2022-09-10T16:30:11.067Z,2.50
2022-09-10T16:33:01.296Z,2.55
2022-09-10T16:35:48.619Z,1.30
2022-09-10T16:38:35.699Z,1.98
2022-09-10T16:41:23.353Z,2.90
2022-09-10T16:44:14.754Z,2.40
2022-09-10T16:47:02.102Z,1.17
2022-09-10T16:49:50.543Z,1.42
2022-09-10T16:52:37.670Z,0.90
2022-09-10T16:55:24.933Z,1.30
2022-09-10T16:58:12.271Z,2.53
2022-09-10T17:00:59.622Z,1.10
2022-09-10T17:03:49.731Z,1.07
2022-09-10T17:06:38.102Z,1.65
2022-09-10T17:09:33.741Z,0.70
2022-09-10T17:12:21.426Z,0.75
2022-09-10T17:15:11.607Z,0.80
2022-09-10T17:17:59.246Z,0.70
2022-09-10T17:20:48.212Z,0.60
2022-09-10T17:23:37.044Z,0.70
2022-09-10T17:26:25.191Z,0.40
2022-09-10T17:29:14.589Z,0.57
2022-09-10T17:32:04.867Z,0.80
2022-09-10T17:34:52.093Z,0.50
2022-09-10T17:37:41.337Z,0.85
2022-09-10T17:40:29.795Z,0.67
2022-09-10T17:43:17.215Z,0.70
2022-09-10T17:46:04.884Z,0.77
2022-09-10T17:48:53.517Z,0.80
2022-09-10T17:51:40.872Z,1.97
2022-09-10T17:54:27.845Z,1.48
2022-09-10T17:57:17.326Z,1.60
2022-09-10T18:00:06.911Z,1.60
2022-09-10T18:02:54.560Z,1.00
2022-09-10T18:05:42.387Z,0.70
2022-09-10T18:08:29.086Z,0.88
2022-09-10T18:11:17.511Z,0.47
2022-09-10T18:14:07.229Z,0.73
2022-09-10T18:16:55.776Z,0.47
2022-09-10T18:19:42.969Z,0.63
2022-09-10T18:22:29.975Z,0.70
2022-09-10T18:25:17.019Z,0.73
2022-09-10T18:28:04.439Z,0.57
2022-09-10T18:30:53.257Z,0.73
2022-09-10T18:33:41.306Z,0.65
2022-09-10T18:36:30.229Z,0.60
2022-09-10T18:39:17.048Z,0.77
2022-09-10T18:42:04.281Z,0.73
2022-09-10T18:44:53.907Z,0.75
2022-09-10T18:47:45.342Z,0.60
2022-09-10T18:50:32.628Z,0.60
2022-09-10T18:53:19.682Z,0.68
2022-09-10T18:56:07.990Z,1.10
2022-09-10T18:58:58.507Z,0.77
2022-09-10T19:01:46.095Z,0.68
2022-09-10T19:04:49.186Z,0.95
2022-09-10T19:07:43.611Z,0.80
2022-09-10T19:10:33.848Z,1.20
2022-09-10T19:13:20.908Z,2.65
2022-09-10T19:16:08.521Z,4.20
2022-09-10T19:18:56.519Z,3.38
2022-09-10T19:21:45.435Z,3.47
2022-09-10T19:24:53.399Z,3.15
2022-09-10T19:27:41.084Z,2.17
2022-09-10T19:30:30.612Z,1.58
2022-09-10T19:33:24.018Z,1.63
2022-09-10T19:36:12.050Z,1.13
2022-09-10T19:39:01.776Z,0.98
2022-09-10T19:41:50.119Z,1.25
2022-09-10T19:44:38.095Z,1.13
2022-09-10T19:47:25.379Z,1.02
2022-09-10T19:50:13.311Z,1.40
2022-09-10T19:53:00.160Z,0.93
2022-09-10T19:55:49.019Z,1.10
2022-09-10T19:58:36.404Z,1.15
2022-09-10T20:01:24.733Z,1.10
2022-09-10T20:04:12.667Z,0.98
2022-09-10T20:06:59.684Z,1.08
2022-09-10T20:09:47.180Z,1.17
2022-09-10T20:12:35.700Z,1.50
2022-09-10T20:15:22.462Z,1.00
2022-09-10T20:18:09.583Z,0.88
2022-09-10T20:21:00.146Z,0.82
2022-09-10T20:23:49.103Z,1.00
2022-09-10T20:26:38.204Z,1.20
2022-09-10T20:29:28.431Z,1.00
2022-09-10T20:32:16.629Z,0.90
2022-09-10T20:35:03.739Z,1.10
2022-09-10T20:38:00.229Z,0.80
2022-09-10T20:40:47.423Z,1.33
2022-09-10T20:43:34.464Z,0.90
2022-09-10T20:46:23.956Z,0.90
2022-09-10T20:49:12.468Z,1.50
2022-09-10T20:52:00.260Z,0.90
2022-09-10T20:54:48.038Z,0.93
2022-09-10T20:57:35.397Z,0.90
2022-09-10T21:00:22.655Z,1.00
2022-09-10T21:03:11.508Z,0.93
2022-09-10T21:05:58.747Z,1.05
2022-09-10T21:08:47.535Z,2.30
2022-09-10T21:11:35.394Z,1.17
2022-09-10T21:14:29.632Z,1.05
2022-09-10T21:17:17.320Z,1.30
2022-09-10T21:20:06.782Z,0.75
2022-09-10T21:22:56.390Z,1.08
2022-09-10T21:25:56.037Z,0.93
2022-09-10T21:29:03.470Z,1.00
2022-09-10T21:31:56.912Z,0.75
2022-09-10T21:34:44.478Z,1.00
2022-09-10T21:37:33.323Z,0.95
2022-09-10T21:40:21.340Z,0.80
2022-09-10T21:43:09.806Z,1.05
2022-09-10T21:45:56.879Z,1.02
2022-09-10T21:48:44.304Z,1.15
2022-09-10T21:51:33.517Z,1.13
2022-09-10T21:54:23.100Z,0.90
2022-09-10T21:57:11.731Z,1.13
2022-09-10T21:59:58.610Z,1.15
2022-09-10T22:02:46.230Z,1.30
2022-09-10T22:05:33.417Z,0.90
2022-09-10T22:08:20.576Z,1.10
2022-09-10T22:11:12.226Z,1.40
2022-09-10T22:14:02.050Z,1.30
2022-09-10T22:16:49.216Z,1.50
2022-09-10T22:19:36.123Z,1.58
2022-09-10T22:22:23.046Z,1.48
2022-09-10T22:25:10.619Z,1.40
2022-09-10T22:27:58.952Z,1.50
2022-09-10T22:30:45.835Z,1.40
2022-09-10T22:33:33.033Z,1.33
2022-09-10T22:36:23.508Z,1.67
2022-09-10T22:39:12.846Z,1.80
2022-09-10T22:42:01.502Z,1.10
2022-09-10T22:44:49.741Z,1.13
2022-09-10T22:47:37.140Z,1.20
2022-09-10T22:50:23.837Z,1.30
2022-09-10T22:53:11.324Z,1.20
2022-09-10T22:55:58.339Z,1.00
2022-09-10T22:58:45.584Z,1.10
2022-09-10T23:01:35.724Z,1.08
2022-09-10T23:04:22.826Z,1.02
2022-09-10T23:07:10.068Z,1.30
2022-09-10T23:09:57.029Z,1.10
2022-09-10T23:12:43.957Z,1.10
2022-09-10T23:15:32.435Z,1.20
2022-09-10T23:18:23.769Z,1.20
2022-09-10T23:21:11.870Z,1.23
2022-09-10T23:23:59.871Z,0.95
2022-09-10T23:26:47.144Z,1.27
2022-09-10T23:29:35.145Z,1.02
2022-09-10T23:32:22.126Z,1.20
2022-09-10T23:35:11.505Z,1.10
2022-09-10T23:37:58.268Z,1.52
2022-09-10T23:40:45.785Z,1.52
2022-09-10T23:43:32.569Z,1.38
2022-09-10T23:46:19.482Z,1.30
2022-09-10T23:49:07.468Z,1.20
2022-09-10T23:51:56.111Z,1.33
2022-09-10T23:54:43.592Z,1.30
2022-09-10T23:57:30.380Z,1.35
